createdAt,value
2022-08-11T00:09:41.998Z,15.77
2022-08-11T00:20:12.972Z,20.67
2022-08-11T00:30:12.170Z,10.35
2022-08-11T00:40:28.660Z,5.90
2022-08-11T00:51:00.647Z,4.45
2022-08-11T01:01:18.691Z,5.40
2022-08-11T01:11:55.687Z,15.20
2022-08-11T01:22:19.596Z,2.40
2022-08-11T01:32:40.646Z,2.55
2022-08-11T01:43:47.265Z,2.20
2022-08-11T01:54:15.992Z,3.78
2022-08-11T02:15:04.771Z,5.88
2022-08-11T02:25:36.762Z,3.90
2022-08-11T02:35:51.988Z,4.78
2022-08-11T02:46:18.735Z,3.03
2022-08-11T02:56:46.036Z,3.08
2022-08-11T03:07:31.953Z,3.50
2022-08-11T03:17:42.546Z,3.72
2022-08-11T03:28:02.694Z,2.92
2022-08-11T03:38:11.446Z,2.47
2022-08-11T03:48:38.091Z,2.72
2022-08-11T03:58:57.234Z,2.38
2022-08-11T04:09:46.897Z,3.83
2022-08-11T04:20:34.483Z,3.67
2022-08-11T04:31:14.605Z,3.53
2022-08-11T04:42:20.515Z,2.55
2022-08-11T04:52:57.100Z,1.80
2022-08-11T05:03:18.358Z,5.43
2022-08-11T05:13:51.368Z,5.72
2022-08-11T05:24:23.726Z,5.70
2022-08-11T05:34:52.497Z,4.72
2022-08-11T05:45:20.234Z,5.28
2022-08-11T05:56:02.494Z,5.00
2022-08-11T06:06:09.935Z,4.53
2022-08-11T06:16:15.625Z,3.83
2022-08-11T06:26:20.051Z,5.60
2022-08-11T06:36:28.133Z,4.22
2022-08-11T06:57:28.474Z,4.68
2022-08-11T07:07:57.103Z,5.15
2022-08-11T07:19:07.718Z,8.33
2022-08-11T07:29:12.962Z,5.55
2022-08-11T07:39:31.974Z,3.38
2022-08-11T07:49:57.717Z,3.28
2022-08-11T08:00:19.321Z,3.40
2022-08-11T08:10:41.453Z,3.80
2022-08-11T08:20:55.137Z,2.72
2022-08-11T08:30:58.848Z,2.10
2022-08-11T08:41:03.114Z,2.00
2022-08-11T08:51:58.690Z,2.47
2022-08-11T09:02:02.564Z,2.50
2022-08-11T09:12:06.047Z,3.88
2022-08-11T09:22:28.293Z,3.08
2022-08-11T09:32:32.029Z,2.13
2022-08-11T09:42:54.336Z,2.30
2022-08-11T09:53:34.763Z,3.13
2022-08-11T10:03:25.464Z,3.15
2022-08-11T10:14:33.203Z,1.58
2022-08-11T10:24:38.412Z,2.83
2022-08-11T10:34:51.219Z,4.35
2022-08-11T10:44:59.668Z,2.25
2022-08-11T10:55:21.380Z,2.63
2022-08-11T11:05:32.006Z,3.17
2022-08-11T11:15:56.192Z,1.88
2022-08-11T11:26:15.273Z,3.03
2022-08-11T11:36:32.817Z,1.60
2022-08-11T11:46:38.782Z,2.35
2022-08-11T11:56:43.980Z,3.27
2022-08-11T12:06:47.563Z,1.20
2022-08-11T12:16:51.367Z,2.72
2022-08-11T12:27:16.715Z,2.13
2022-08-11T12:37:30.634Z,3.30
2022-08-11T12:48:40.143Z,2.80
2022-08-11T12:58:17.571Z,1.58
2022-08-11T13:08:23.607Z,1.58
2022-08-11T13:18:28.072Z,3.63
2022-08-11T13:28:32.051Z,2.28
2022-08-11T13:38:35.745Z,2.28
2022-08-11T13:48:39.322Z,2.50
2022-08-11T13:58:43.599Z,2.60
2022-08-11T14:08:47.398Z,1.90
2022-08-11T14:18:54.582Z,2.95
2022-08-11T14:29:08.731Z,1.88
2022-08-11T14:39:14.492Z,2.13
2022-08-11T14:49:18.281Z,2.20
2022-08-11T14:59:22.207Z,2.17
2022-08-11T15:09:25.428Z,1.52
2022-08-11T15:19:40.125Z,1.80
2022-08-11T15:30:03.079Z,1.23
2022-08-11T15:40:37.414Z,2.08
2022-08-11T15:50:47.322Z,1.63
2022-08-11T16:01:09.593Z,1.20
2022-08-11T16:11:13.924Z,1.45
2022-08-11T16:21:33.585Z,1.42
2022-08-11T16:31:39.184Z,1.83
2022-08-11T16:42:02.682Z,1.33
2022-08-11T16:52:11.846Z,1.23
2022-08-11T17:02:40.578Z,1.67
2022-08-11T17:13:05.085Z,2.05
2022-08-11T17:23:27.203Z,1.73
2022-08-11T17:33:50.349Z,1.10
2022-08-11T17:44:13.880Z,2.65
2022-08-11T17:54:35.737Z,1.55
2022-08-11T18:04:42.379Z,5.30
2022-08-11T18:15:09.720Z,2.13
2022-08-11T18:35:56.851Z,1.73
2022-08-11T18:46:28.752Z,2.53
2022-08-11T18:56:51.504Z,2.38
2022-08-11T19:07:20.562Z,1.77
2022-08-11T19:17:45.995Z,1.40
2022-08-11T19:28:07.914Z,1.90
2022-08-11T19:38:30.111Z,2.25
2022-08-11T19:48:53.030Z,7.93
2022-08-11T19:59:15.343Z,5.25
2022-08-11T20:10:32.158Z,2.35
2022-08-11T20:20:55.117Z,3.50
2022-08-11T20:31:17.206Z,7.72
2022-08-11T20:41:49.266Z,1.98
2022-08-11T20:52:21.677Z,3.08
2022-08-11T21:02:45.097Z,3.60
2022-08-11T21:13:18.059Z,3.53
2022-08-11T21:23:51.713Z,2.03
2022-08-11T21:34:14.929Z,3.63
2022-08-11T21:44:37.597Z,2.88
2022-08-11T21:54:59.999Z,2.05
2022-08-11T22:05:21.459Z,4.65
2022-08-11T22:15:42.889Z,2.38
2022-08-11T22:26:07.390Z,3.20
2022-08-11T22:36:34.174Z,3.20
2022-08-11T22:46:55.824Z,2.80
2022-08-11T22:57:18.579Z,1.48
2022-08-11T23:07:49.685Z,2.38
2022-08-11T23:18:14.234Z,1.63
2022-08-11T23:28:35.995Z,2.28
2022-08-11T23:38:57.063Z,2.10
2022-08-11T23:49:21.744Z,2.38
2022-08-11T23:59:43.556Z,1.33
